EmailTwitter


Observations de surface / Québec / CYUL (71627)

Régions: Québec | Canada | États-Unis | Europe | France | UK | Ailleurs
Station
Affichage
Infos & localisation pour CYUL (71627) | Aide pour décoder les METARs

Observations prises le 2018-01-23 à 07H00 UTC à MONTREAL INTL A, QB (CYUL)

Etat du ciel: couvert.

Obstacle(s) à la visibilité: faible pluie verglaçante et neige.

Température: -3.0 Celsius

Point de rosée: -5.0 Celsius

Humidité relative: 86%

Facteur vent: -10.

Vents: Nord-est à 30 km/h ou 16 noeuds.

Pression au niveau moyen de la mer: 101.23 kilopascals.

Calage altimétrique: 101.18 kilopascals ou 29.88 pouces de mercure.

Visibilité horizontale: 8.00 milles terrestres ou 12.80 kilomètres.

Hauteur du plafond: 274 mètres ( 900 pieds ).

Observation METAR:

CYUL 230700Z 04016KT 8SM -FZRA -SN OVC009 M03/M05 A2988 RMK SF8 SLP123=